SBFL/FLN METAR and TAF weather

Enter ICAO airport designator
Station Type Date Time Source
SBFL METAR 2019/09/21 05:00 UTC NOAA

SBFL 210500Z 18011KT 9999 BKN040 17/13 Q1019


Station Type Date Time Source
SBFL Decoded METAR 2019/09/21 05:00 UTC NOAA

Florianopolis Aeroporto , Brazil (SBFL) 27-40S 048-33W 5M
Sep 21, 2019 - 01:00 AM EDT / 2019.09.21 0500 UTC
Wind: from the S (180 degrees) at 13 MPH (11 KT):0
Visibility: greater than 7 mile(s):0
Sky conditions: mostly cloudy
Temperature: 62 F (17 C)
Dew Point: 55 F (13 C)
Relative Humidity: 77%
Pressure (altimeter): 30.09 in. Hg (1019 hPa)
ob: SBFL 210500Z 18011KT 9999 BKN040 17/13 Q1019
cycle: 5

Station Type Date Time Source
SBFL TAF 2019/09/21 06:13 UTC NOAA

TAF SBFL 210330Z 2106/2206 17013KT 9999 SCT040 TN14/2108Z TX18/2118Z
BECMG 2110/2112 BKN040
BECMG 2122/2124 15004KT
RMK PCX

Example: see airport list